createdAt,value
2018-02-22T00:00:22.905Z,1006.22
2018-02-22T00:01:03.480Z,1006.26
2018-02-22T00:01:44.000Z,1006.29
2018-02-22T00:02:24.600Z,1006.23
2018-02-22T00:03:05.224Z,1006.28
2018-02-22T00:03:45.701Z,1006.27
2018-02-22T00:04:26.242Z,1006.23
2018-02-22T00:05:06.967Z,1006.31
2018-02-22T00:05:47.472Z,1006.25
2018-02-22T00:06:28.019Z,1006.26
2018-02-22T00:07:08.561Z,1006.23
2018-02-22T00:07:49.151Z,1006.24
2018-02-22T00:08:29.741Z,1006.21
2018-02-22T00:09:10.347Z,1006.2
2018-02-22T00:09:50.913Z,1006.23
2018-02-22T00:10:31.355Z,1006.25
2018-02-22T00:11:11.904Z,1006.2
2018-02-22T00:11:52.448Z,1006.23
2018-02-22T00:12:33.051Z,1006.21
2018-02-22T00:13:13.538Z,1006.2
2018-02-22T00:13:54.093Z,1006.17
2018-02-22T00:14:34.664Z,1006.24
2018-02-22T00:15:15.231Z,1006.17
2018-02-22T00:15:55.771Z,1006.16
2018-02-22T00:16:36.319Z,1006.15
2018-02-22T00:17:16.862Z,1006.15
2018-02-22T00:17:57.424Z,1006.11
2018-02-22T00:18:38.010Z,1006.21
2018-02-22T00:19:18.547Z,1006.12
2018-02-22T00:19:59.184Z,1006.07
2018-02-22T00:20:39.736Z,1006.12
2018-02-22T00:21:20.288Z,1006.09
2018-02-22T00:22:00.725Z,1006.07
2018-02-22T00:22:41.293Z,1006.02
2018-02-22T00:23:21.877Z,1006.1
2018-02-22T00:24:02.421Z,1006.13
2018-02-22T00:24:42.983Z,1006.08
2018-02-22T00:25:23.562Z,1006.04
2018-02-22T00:26:04.117Z,1006.01
2018-02-22T00:26:44.657Z,1006.05
2018-02-22T00:27:25.227Z,1006
2018-02-22T00:28:05.789Z,1006
2018-02-22T00:28:46.353Z,1005.99
2018-02-22T00:29:26.935Z,1005.99
2018-02-22T00:30:07.488Z,1006.01
2018-02-22T00:30:48.071Z,1006.03
2018-02-22T00:31:28.637Z,1006.04
2018-02-22T00:32:09.204Z,1005.99
2018-02-22T00:32:49.760Z,1006.05
2018-02-22T00:33:30.316Z,1005.99
2018-02-22T00:34:10.871Z,1005.97
2018-02-22T00:34:51.425Z,1006.02
2018-02-22T00:35:32.053Z,1005.99
2018-02-22T00:36:12.611Z,1006.04
2018-02-22T00:36:53.170Z,1005.94
2018-02-22T00:37:33.738Z,1005.91
2018-02-22T00:38:14.291Z,1005.96
2018-02-22T00:38:54.842Z,1005.93
2018-02-22T00:39:35.414Z,1005.88
2018-02-22T00:40:15.962Z,1005.91
2018-02-22T00:40:56.521Z,1005.89
2018-02-22T00:41:37.078Z,1005.85
2018-02-22T00:42:17.658Z,1005.88
2018-02-22T00:42:58.211Z,1005.83
2018-02-22T00:43:38.769Z,1005.89
2018-02-22T00:44:19.345Z,1005.87
2018-02-22T00:44:59.898Z,1005.89
2018-02-22T00:45:40.463Z,1005.87
2018-02-22T00:46:21.024Z,1005.83
2018-02-22T00:47:01.584Z,1005.82
2018-02-22T00:47:42.133Z,1005.8
2018-02-22T00:48:22.712Z,1005.84
2018-02-22T00:49:03.275Z,1005.82
2018-02-22T00:49:43.832Z,1005.87
2018-02-22T00:50:24.388Z,1005.84
2018-02-22T00:51:04.960Z,1005.87
2018-02-22T00:51:45.527Z,1005.84
2018-02-22T00:52:26.074Z,1005.83
2018-02-22T00:53:06.633Z,1005.79
2018-02-22T00:53:47.199Z,1005.81
2018-02-22T00:54:27.760Z,1005.8
2018-02-22T00:55:08.328Z,1005.78
2018-02-22T00:55:48.869Z,1005.84
2018-02-22T00:56:29.428Z,1005.76
2018-02-22T00:57:09.993Z,1005.8
2018-02-22T00:57:50.565Z,1005.81
2018-02-22T00:58:31.116Z,1005.77
2018-02-22T00:59:11.658Z,1005.74
2018-02-22T00:59:52.218Z,1005.77
2018-02-22T01:00:32.778Z,1005.75
2018-02-22T01:01:13.328Z,1005.87
2018-02-22T01:01:53.866Z,1005.84
2018-02-22T01:02:34.431Z,1005.82
2018-02-22T01:03:14.988Z,1005.75
2018-02-22T01:03:55.560Z,1005.79
2018-02-22T01:04:36.160Z,1005.8
2018-02-22T01:05:16.706Z,1005.8
2018-02-22T01:05:57.263Z,1005.77
2018-02-22T01:06:37.825Z,1005.77
2018-02-22T01:07:18.367Z,1005.78
2018-02-22T01:07:58.927Z,1005.77
2018-02-22T01:08:39.475Z,1005.79
2018-02-22T01:09:20.029Z,1005.78
2018-02-22T01:10:00.572Z,1005.78
2018-02-22T01:10:41.123Z,1005.79
2018-02-22T01:11:21.699Z,1005.78
2018-02-22T01:12:02.286Z,1005.8
2018-02-22T01:12:42.845Z,1005.8
2018-02-22T01:13:23.400Z,1005.79
2018-02-22T01:14:03.959Z,1005.82
2018-02-22T01:14:44.513Z,1005.78
2018-02-22T01:15:25.069Z,1005.77
2018-02-22T01:16:05.650Z,1005.8
2018-02-22T01:16:46.227Z,1005.8
2018-02-22T01:17:26.772Z,1005.81
2018-02-22T01:18:07.339Z,1005.78
2018-02-22T01:18:47.885Z,1005.85
2018-02-22T01:19:28.434Z,1005.85
2018-02-22T01:20:09.002Z,1005.85
2018-02-22T01:20:49.545Z,1005.8
2018-02-22T01:21:30.096Z,1005.78
2018-02-22T01:22:10.652Z,1005.78
2018-02-22T01:22:51.214Z,1005.79
2018-02-22T01:23:31.777Z,1005.78
2018-02-22T01:24:12.372Z,1005.8
2018-02-22T01:24:52.908Z,1005.77
2018-02-22T01:25:33.467Z,1005.79
2018-02-22T01:26:14.023Z,1005.83
2018-02-22T01:26:54.560Z,1005.81
2018-02-22T01:27:35.110Z,1005.78
2018-02-22T01:28:15.664Z,1005.84
2018-02-22T01:28:56.233Z,1005.8
2018-02-22T01:29:36.784Z,1005.84
2018-02-22T01:30:17.334Z,1005.83
2018-02-22T01:30:57.894Z,1005.84
2018-02-22T01:31:38.485Z,1005.76
2018-02-22T01:32:19.042Z,1005.78
2018-02-22T01:32:59.600Z,1005.79
2018-02-22T01:33:40.147Z,1005.78
2018-02-22T01:34:20.708Z,1005.78
2018-02-22T01:35:01.248Z,1005.74
2018-02-22T01:35:41.806Z,1005.74
2018-02-22T01:36:22.370Z,1005.8
2018-02-22T01:37:02.909Z,1005.71
2018-02-22T01:37:43.461Z,1005.72
2018-02-22T01:38:24.032Z,1005.72
2018-02-22T01:39:04.590Z,1005.76
2018-02-22T01:39:45.153Z,1005.73
2018-02-22T01:40:25.692Z,1005.8
2018-02-22T01:41:06.238Z,1005.72
2018-02-22T01:41:46.798Z,1005.73
2018-02-22T01:42:27.384Z,1005.7
2018-02-22T01:43:07.965Z,1005.78
2018-02-22T01:43:48.512Z,1005.74
2018-02-22T01:44:29.067Z,1005.72
2018-02-22T01:45:09.620Z,1005.64
2018-02-22T01:45:50.174Z,1005.65
2018-02-22T01:46:30.726Z,1005.64
2018-02-22T01:47:11.291Z,1005.58
2018-02-22T01:47:51.844Z,1005.62
2018-02-22T01:48:32.400Z,1005.63
2018-02-22T01:49:12.957Z,1005.63
2018-02-22T01:49:53.526Z,1005.65
2018-02-22T01:50:34.080Z,1005.6
2018-02-22T01:51:14.624Z,1005.54
2018-02-22T01:51:55.194Z,1005.51
2018-02-22T01:52:35.769Z,1005.53
2018-02-22T01:53:16.378Z,1005.56
2018-02-22T01:53:56.938Z,1005.51
2018-02-22T01:54:37.507Z,1005.53
2018-02-22T01:55:18.037Z,1005.45
2018-02-22T01:55:58.595Z,1005.52
2018-02-22T01:56:39.157Z,1005.52
2018-02-22T01:57:19.719Z,1005.49
2018-02-22T01:58:00.413Z,1005.51
2018-02-22T01:58:41.053Z,1005.54
2018-02-22T01:59:21.623Z,1005.48
2018-02-22T02:00:02.203Z,1005.46
2018-02-22T02:00:43.095Z,1005.5
2018-02-22T02:01:23.648Z,1005.46
2018-02-22T02:02:04.205Z,1005.45
2018-02-22T02:02:44.764Z,1005.44
2018-02-22T02:03:25.494Z,1005.46
2018-02-22T02:04:06.057Z,1005.5
2018-02-22T02:04:46.595Z,1005.51
2018-02-22T02:05:27.150Z,1005.45
2018-02-22T02:06:07.703Z,1005.44
2018-02-22T02:06:48.222Z,1005.51
2018-02-22T02:07:28.778Z,1005.45
2018-02-22T02:08:09.331Z,1005.48
2018-02-22T02:08:49.899Z,1005.44
2018-02-22T02:09:30.463Z,1005.47
2018-02-22T02:10:11.012Z,1005.46
2018-02-22T02:10:51.568Z,1005.49
2018-02-22T02:11:32.122Z,1005.47
2018-02-22T02:12:12.682Z,1005.48
2018-02-22T02:12:53.231Z,1005.42
2018-02-22T02:13:33.801Z,1005.42
2018-02-22T02:14:14.368Z,1005.46
2018-02-22T02:14:54.922Z,1005.41
2018-02-22T02:15:35.492Z,1005.38
2018-02-22T02:16:16.049Z,1005.43
2018-02-22T02:16:56.611Z,1005.45
2018-02-22T02:17:37.170Z,1005.46
2018-02-22T02:18:17.726Z,1005.43
2018-02-22T02:18:58.279Z,1005.42
2018-02-22T02:19:38.828Z,1005.43
2018-02-22T02:20:19.381Z,1005.39
2018-02-22T02:20:59.909Z,1005.39
2018-02-22T02:21:40.454Z,1005.37
2018-02-22T02:22:21.009Z,1005.4
2018-02-22T02:23:01.562Z,1005.39
2018-02-22T02:23:42.130Z,1005.37
2018-02-22T02:24:22.692Z,1005.44
2018-02-22T02:25:03.252Z,1005.42
2018-02-22T02:25:43.827Z,1005.39
2018-02-22T02:26:24.385Z,1005.35
2018-02-22T02:27:04.960Z,1005.34
2018-02-22T02:27:45.529Z,1005.31
2018-02-22T02:28:26.083Z,1005.37
2018-02-22T02:29:06.645Z,1005.39
2018-02-22T02:29:47.175Z,1005.38
2018-02-22T02:30:27.755Z,1005.35
2018-02-22T02:31:08.301Z,1005.38
2018-02-22T02:31:48.873Z,1005.3
2018-02-22T02:32:29.425Z,1005.4
2018-02-22T02:33:10.000Z,1005.36
2018-02-22T02:33:50.562Z,1005.34
2018-02-22T02:34:31.138Z,1005.31
2018-02-22T02:35:11.702Z,1005.36
2018-02-22T02:35:52.278Z,1005.4
2018-02-22T02:36:32.823Z,1005.35
2018-02-22T02:37:13.375Z,1005.35
2018-02-22T02:37:53.944Z,1005.3
2018-02-22T02:38:34.500Z,1005.34
2018-02-22T02:39:15.054Z,1005.36
2018-02-22T02:39:55.620Z,1005.32
2018-02-22T02:40:36.168Z,1005.3
2018-02-22T02:41:16.701Z,1005.3
2018-02-22T02:41:57.258Z,1005.28
2018-02-22T02:42:37.839Z,1005.34
2018-02-22T02:43:18.394Z,1005.34
2018-02-22T02:43:58.957Z,1005.29
2018-02-22T02:44:39.514Z,1005.36
2018-02-22T02:45:20.064Z,1005.33
2018-02-22T02:46:00.623Z,1005.26
2018-02-22T02:46:41.175Z,1005.29
2018-02-22T02:47:21.727Z,1005.27
2018-02-22T02:48:02.278Z,1005.28
2018-02-22T02:48:42.835Z,1005.26
2018-02-22T02:49:23.421Z,1005.27
2018-02-22T02:50:03.981Z,1005.31
2018-02-22T02:50:44.534Z,1005.28
2018-02-22T02:51:25.075Z,1005.22
2018-02-22T02:52:05.701Z,1005.18
2018-02-22T02:52:46.274Z,1005.23
2018-02-22T02:53:26.852Z,1005.2
2018-02-22T02:54:08.129Z,1005.16
2018-02-22T02:54:48.681Z,1005.21
2018-02-22T02:55:29.233Z,1005.2
2018-02-22T02:56:09.791Z,1005.24
2018-02-22T02:56:50.338Z,1005.25
2018-02-22T02:57:30.903Z,1005.19
2018-02-22T02:58:11.454Z,1005.14
2018-02-22T02:58:52.004Z,1005.19
2018-02-22T02:59:32.556Z,1005.18
2018-02-22T03:00:13.115Z,1005.15
2018-02-22T03:00:53.673Z,1005.18
2018-02-22T03:01:34.245Z,1005.18
2018-02-22T03:02:14.798Z,1005.12
2018-02-22T03:02:55.360Z,1005.15
2018-02-22T03:03:35.919Z,1005.09
2018-02-22T03:04:16.471Z,1005.1
2018-02-22T03:04:57.012Z,1005.07
2018-02-22T03:05:37.569Z,1005.1
2018-02-22T03:06:18.118Z,1005.11
2018-02-22T03:06:58.679Z,1005.1
2018-02-22T03:07:39.260Z,1005.12
2018-02-22T03:08:19.818Z,1005.07
2018-02-22T03:09:00.368Z,1005.04
2018-02-22T03:09:40.926Z,1005.09
2018-02-22T03:10:21.474Z,1005.17
2018-02-22T03:11:02.027Z,1005.12
2018-02-22T03:11:42.602Z,1005.11
2018-02-22T03:12:23.173Z,1005.11
2018-02-22T03:13:03.733Z,1005.11
2018-02-22T03:13:44.292Z,1005.06
2018-02-22T03:14:24.848Z,1005.12
2018-02-22T03:15:05.401Z,1005.12
2018-02-22T03:15:45.972Z,1005.06
2018-02-22T03:16:26.528Z,1005.09
2018-02-22T03:17:07.099Z,1005.07
2018-02-22T03:17:47.648Z,1005.09
2018-02-22T03:18:28.203Z,1005.09
2018-02-22T03:19:08.752Z,1005.09
2018-02-22T03:19:49.311Z,1005.12
2018-02-22T03:20:29.850Z,1005.08
2018-02-22T03:21:10.415Z,1005.07
2018-02-22T03:21:50.972Z,1005.09
2018-02-22T03:22:31.525Z,1005.06
2018-02-22T03:23:12.084Z,1005.09
2018-02-22T03:23:52.640Z,1005.03
2018-02-22T03:24:33.196Z,1005.06
2018-02-22T03:25:13.757Z,1005.12
2018-02-22T03:25:54.306Z,1005.05
2018-02-22T03:26:34.876Z,1005.1
2018-02-22T03:27:15.444Z,1005.05
2018-02-22T03:27:56.006Z,1005.07
2018-02-22T03:28:36.555Z,1005.07
2018-02-22T03:29:17.105Z,1005.08
2018-02-22T03:29:57.663Z,1005.05
2018-02-22T03:30:38.216Z,1005.06
2018-02-22T03:31:18.771Z,1005.13
2018-02-22T03:31:59.332Z,1005.11
2018-02-22T03:32:39.911Z,1005.07
2018-02-22T03:33:20.479Z,1005.06
2018-02-22T03:34:01.041Z,1005.07
2018-02-22T03:34:41.591Z,1005.12
2018-02-22T03:35:22.150Z,1005.05
2018-02-22T03:36:02.732Z,1005.1
2018-02-22T03:36:43.314Z,1005.06
2018-02-22T03:37:23.865Z,1005.11
2018-02-22T03:38:04.413Z,1005.1
2018-02-22T03:38:44.956Z,1005.12
2018-02-22T03:39:25.615Z,1005.09
2018-02-22T03:40:06.165Z,1005.1
2018-02-22T03:40:46.718Z,1005.05
2018-02-22T03:41:27.314Z,1005.1
2018-02-22T03:42:07.864Z,1005.08
2018-02-22T03:42:48.426Z,1005.05
2018-02-22T03:43:28.987Z,1005.08
2018-02-22T03:44:09.551Z,1005.03
2018-02-22T03:44:50.105Z,1005.05
2018-02-22T03:45:30.684Z,1005.07
2018-02-22T03:46:11.195Z,1005.07
2018-02-22T03:46:51.750Z,1005.05
2018-02-22T03:47:32.295Z,1005.02
2018-02-22T03:48:12.848Z,1005.06
2018-02-22T03:48:53.396Z,1005.11
2018-02-22T03:49:33.965Z,1005.05
2018-02-22T03:50:14.525Z,1005.06
2018-02-22T03:50:55.128Z,1005.01
2018-02-22T03:51:35.643Z,1005.03
2018-02-22T03:52:16.190Z,1005.09
2018-02-22T03:52:56.759Z,1005.06
2018-02-22T03:53:37.312Z,1005.05
2018-02-22T03:54:17.878Z,1005
2018-02-22T03:54:58.463Z,1004.97
2018-02-22T03:55:39.019Z,1005.02
2018-02-22T03:56:19.573Z,1005.01
2018-02-22T03:57:00.136Z,1004.98
2018-02-22T03:57:40.688Z,1004.95
2018-02-22T03:58:21.256Z,1005.02
2018-02-22T03:59:01.806Z,1005.01
2018-02-22T03:59:42.375Z,1004.97
2018-02-22T04:00:22.937Z,1004.95
2018-02-22T04:01:03.491Z,1004.95
2018-02-22T04:01:44.057Z,1004.96
2018-02-22T04:02:24.599Z,1004.98
2018-02-22T04:03:05.172Z,1005
2018-02-22T04:03:45.734Z,1004.99
2018-02-22T04:04:26.287Z,1004.95
2018-02-22T04:05:06.854Z,1004.96
2018-02-22T04:05:47.402Z,1005
2018-02-22T04:06:27.974Z,1005.05
2018-02-22T04:07:08.520Z,1005
2018-02-22T04:07:49.072Z,1004.93
2018-02-22T04:08:29.632Z,1004.99
2018-02-22T04:09:10.187Z,1004.93
2018-02-22T04:09:50.786Z,1004.94
2018-02-22T04:10:31.362Z,1004.96
2018-02-22T04:11:11.925Z,1005.02
2018-02-22T04:11:52.472Z,1005.01
2018-02-22T04:12:33.026Z,1005.03
2018-02-22T04:13:13.603Z,1004.97
2018-02-22T04:13:54.125Z,1005.01
2018-02-22T04:14:34.677Z,1005.01
2018-02-22T04:15:15.232Z,1005.03
2018-02-22T04:15:55.786Z,1005.02
2018-02-22T04:16:36.343Z,1005.03
2018-02-22T04:17:16.892Z,1005.07
2018-02-22T04:17:57.472Z,1005.08
2018-02-22T04:18:38.038Z,1005.09
2018-02-22T04:19:18.598Z,1005.07
2018-02-22T04:19:59.148Z,1005.05
2018-02-22T04:20:39.702Z,1005.13
2018-02-22T04:21:20.254Z,1005.15
2018-02-22T04:22:00.815Z,1005.15
2018-02-22T04:22:41.367Z,1005.12
2018-02-22T04:23:21.946Z,1005.15
2018-02-22T04:24:02.522Z,1005.15
2018-02-22T04:24:43.082Z,1005.13
2018-02-22T04:25:23.635Z,1005.13
2018-02-22T04:26:04.174Z,1005.15
2018-02-22T04:26:44.732Z,1005.15
2018-02-22T04:27:25.307Z,1005.14
2018-02-22T04:28:05.859Z,1005.17
2018-02-22T04:28:46.417Z,1005.14
2018-02-22T04:29:26.980Z,1005.15
2018-02-22T04:30:07.541Z,1005.1
2018-02-22T04:30:48.131Z,1005.13
2018-02-22T04:31:28.703Z,1005.19
2018-02-22T04:32:09.249Z,1005.18
2018-02-22T04:32:49.814Z,1005.14
2018-02-22T04:33:30.373Z,1005.12
2018-02-22T04:34:10.989Z,1005.17
2018-02-22T04:34:51.545Z,1005.19
2018-02-22T04:35:32.112Z,1005.18
2018-02-22T04:36:12.654Z,1005.18
2018-02-22T04:36:53.227Z,1005.17
2018-02-22T04:37:33.786Z,1005.19
2018-02-22T04:38:14.339Z,1005.15
2018-02-22T04:38:54.901Z,1005.16
2018-02-22T04:39:35.466Z,1005.17
2018-02-22T04:40:16.024Z,1005.21
2018-02-22T04:40:56.589Z,1005.27
2018-02-22T04:41:37.139Z,1005.13
2018-02-22T04:42:17.682Z,1005.15
2018-02-22T04:42:58.339Z,1005.19
2018-02-22T04:43:38.814Z,1005.12
2018-02-22T04:44:19.365Z,1005.09
2018-02-22T04:44:59.910Z,1005.1
2018-02-22T04:45:40.466Z,1005.14
2018-02-22T04:46:21.022Z,1005.12
2018-02-22T04:47:01.592Z,1005.14
2018-02-22T04:47:42.138Z,1005.06
2018-02-22T04:48:22.694Z,1005.1
2018-02-22T04:49:03.257Z,1005.13
2018-02-22T04:49:43.813Z,1005.09
2018-02-22T04:50:24.377Z,1005.14
2018-02-22T04:51:04.940Z,1005.16
2018-02-22T04:51:45.493Z,1005.12
2018-02-22T04:52:26.054Z,1005.14
2018-02-22T04:53:06.597Z,1005.21
2018-02-22T04:53:47.164Z,1005.13
2018-02-22T04:54:27.729Z,1005.11
2018-02-22T04:55:08.283Z,1005.14
2018-02-22T04:55:48.836Z,1005.09
2018-02-22T04:56:29.409Z,1005.05
2018-02-22T04:57:09.971Z,1005.09
2018-02-22T04:57:50.531Z,1005.05
2018-02-22T04:58:31.093Z,1005.14
2018-02-22T04:59:11.634Z,1005.02
2018-02-22T04:59:52.185Z,1005.09
2018-02-22T05:00:32.749Z,1005.07
2018-02-22T05:01:13.286Z,1005.09
2018-02-22T05:01:53.854Z,1005.04
2018-02-22T05:02:34.441Z,1005.07
2018-02-22T05:03:15.004Z,1005.07
2018-02-22T05:03:55.569Z,1005.09
2018-02-22T05:04:36.132Z,1005.11
2018-02-22T05:05:16.689Z,1005.13
2018-02-22T05:05:57.266Z,1005.17
2018-02-22T05:06:37.807Z,1005.11
2018-02-22T05:07:18.357Z,1005.2
2018-02-22T05:07:58.921Z,1005.1
2018-02-22T05:08:39.474Z,1005.27
2018-02-22T05:09:20.040Z,1005.12
2018-02-22T05:10:00.613Z,1005.11
2018-02-22T05:10:41.163Z,1005.09
2018-02-22T05:11:21.733Z,1005.12
2018-02-22T05:12:02.296Z,1005.06
2018-02-22T05:12:42.846Z,1005.07
2018-02-22T05:13:23.407Z,1005.09
2018-02-22T05:14:03.961Z,1005.14
2018-02-22T05:14:44.521Z,1005.06
2018-02-22T05:15:25.064Z,1005.07
2018-02-22T05:16:05.616Z,1005.07
2018-02-22T05:16:46.175Z,1005.09
2018-02-22T05:17:26.722Z,1005.05
2018-02-22T05:18:07.275Z,1005.14
2018-02-22T05:18:47.828Z,1005.07
2018-02-22T05:19:28.379Z,1005.09
2018-02-22T05:20:08.948Z,1005.09
2018-02-22T05:20:49.517Z,1005.13
2018-02-22T05:21:30.078Z,1005.13
2018-02-22T05:22:10.637Z,1005.09
2018-02-22T05:22:51.187Z,1005.06
2018-02-22T05:23:31.747Z,1005.09
2018-02-22T05:24:12.321Z,1005.1
2018-02-22T05:24:52.876Z,1005.06
2018-02-22T05:25:33.428Z,1005.18
2018-02-22T05:26:13.972Z,1005.09
2018-02-22T05:26:54.535Z,1005.18
2018-02-22T05:27:35.103Z,1005.07
2018-02-22T05:28:15.647Z,1005.11
2018-02-22T05:28:56.228Z,1005.13
2018-02-22T05:29:36.755Z,1005.04
2018-02-22T05:30:17.320Z,1005.03
2018-02-22T05:30:57.868Z,1005.12
2018-02-22T05:31:38.502Z,1005.05
2018-02-22T05:32:18.979Z,1005
2018-02-22T05:32:59.535Z,1004.97
2018-02-22T05:33:40.099Z,1005.01
2018-02-22T05:34:20.691Z,1004.98
2018-02-22T05:35:01.212Z,1005
2018-02-22T05:35:41.801Z,1005.01
2018-02-22T05:36:22.358Z,1005
2018-02-22T05:37:02.909Z,1004.97
2018-02-22T05:37:43.491Z,1004.94
2018-02-22T05:38:24.135Z,1004.93
2018-02-22T05:39:04.686Z,1004.93
2018-02-22T05:39:45.232Z,1004.9
2018-02-22T05:40:25.795Z,1004.95
2018-02-22T05:41:06.333Z,1004.96
2018-02-22T05:41:46.954Z,1005.01
2018-02-22T05:42:27.723Z,1005.01
2018-02-22T05:43:08.292Z,1005
2018-02-22T05:43:48.832Z,1005
2018-02-22T05:44:29.377Z,1005
2018-02-22T05:45:09.938Z,1005.09
2018-02-22T05:45:50.498Z,1005.04
2018-02-22T05:46:31.186Z,1005.05
2018-02-22T05:47:11.746Z,1005.09
2018-02-22T05:47:52.355Z,1005.03
2018-02-22T05:48:32.916Z,1004.9
2018-02-22T05:49:13.472Z,1005
2018-02-22T05:49:54.061Z,1004.98
2018-02-22T05:50:34.621Z,1004.98
2018-02-22T05:51:15.187Z,1004.99
2018-02-22T05:51:55.737Z,1004.97
2018-02-22T05:52:36.302Z,1004.99
2018-02-22T05:53:16.873Z,1004.88
2018-02-22T05:53:57.494Z,1004.98
2018-02-22T05:54:38.152Z,1005.08
2018-02-22T05:55:18.709Z,1004.99
2018-02-22T05:55:59.225Z,1005.01
2018-02-22T05:56:39.794Z,1004.98
2018-02-22T05:57:20.392Z,1005.05
2018-02-22T05:58:01.010Z,1005.04
2018-02-22T05:58:41.574Z,1005.03
2018-02-22T05:59:22.249Z,1004.95
2018-02-22T06:00:02.808Z,1005
2018-02-22T06:00:43.361Z,1005.06
2018-02-22T06:01:23.914Z,1005.02
2018-02-22T06:02:04.477Z,1005.06
2018-02-22T06:02:45.172Z,1004.97
2018-02-22T06:03:25.702Z,1005.03
2018-02-22T06:04:06.287Z,1005.01
2018-02-22T06:04:47.138Z,1005.05
2018-02-22T06:05:27.678Z,1004.93
2018-02-22T06:06:08.354Z,1004.96
2018-02-22T06:06:48.889Z,1005.01
2018-02-22T06:07:30.039Z,1005
2018-02-22T06:08:10.591Z,1004.98
2018-02-22T06:08:51.245Z,1004.99
2018-02-22T06:09:31.804Z,1004.96
2018-02-22T06:10:12.368Z,1005
2018-02-22T06:10:52.924Z,1005.02
2018-02-22T06:11:33.473Z,1005.02
2018-02-22T06:12:14.036Z,1005.01
2018-02-22T06:12:54.583Z,1004.96
2018-02-22T06:13:35.133Z,1005
2018-02-22T06:14:15.694Z,1005.03
2018-02-22T06:14:56.232Z,1004.98
2018-02-22T06:15:36.789Z,1005.03
2018-02-22T06:16:17.351Z,1005.03
2018-02-22T06:16:57.915Z,1005.07
2018-02-22T06:17:38.472Z,1004.96
2018-02-22T06:18:19.041Z,1004.98
2018-02-22T06:18:59.592Z,1005.03
2018-02-22T06:19:40.161Z,1004.99
2018-02-22T06:20:20.727Z,1005.05
2018-02-22T06:21:01.279Z,1005.09
2018-02-22T06:21:41.833Z,1005.04
2018-02-22T06:22:22.384Z,1005.02
2018-02-22T06:23:02.938Z,1005.02
2018-02-22T06:23:43.483Z,1004.97
2018-02-22T06:24:24.048Z,1004.97
2018-02-22T06:25:04.588Z,1005.01
2018-02-22T06:25:45.140Z,1005.04
2018-02-22T06:26:25.699Z,1004.95
2018-02-22T06:27:06.252Z,1005.18
2018-02-22T06:27:46.798Z,1005.05
2018-02-22T06:28:27.371Z,1005
2018-02-22T06:29:08.022Z,1005.04
2018-02-22T06:29:48.648Z,1005.03
2018-02-22T06:30:29.199Z,1005.04
2018-02-22T06:31:09.759Z,1005.06
2018-02-22T06:31:50.337Z,1005.06
2018-02-22T06:32:30.888Z,1005.05
2018-02-22T06:33:11.454Z,1005.11
2018-02-22T06:33:52.008Z,1005.07
2018-02-22T06:34:32.572Z,1005.09
2018-02-22T06:35:13.128Z,1005.09
2018-02-22T06:35:53.702Z,1005.05
2018-02-22T06:36:34.266Z,1005.11
2018-02-22T06:37:14.831Z,1005.06
2018-02-22T06:37:55.388Z,1005.04
2018-02-22T06:38:35.948Z,1005.19
2018-02-22T06:39:16.530Z,1005.09
2018-02-22T06:39:57.137Z,1005.11
2018-02-22T06:40:37.680Z,1005.1
2018-02-22T06:41:18.227Z,1005.15
2018-02-22T06:41:58.784Z,1005.13
2018-02-22T06:42:39.334Z,1005.2
2018-02-22T06:43:19.913Z,1005.15
2018-02-22T06:44:00.476Z,1005.2
2018-02-22T06:44:41.021Z,1005.06
2018-02-22T06:45:21.590Z,1005.11
2018-02-22T06:46:02.165Z,1005.08
2018-02-22T06:46:42.748Z,1005.09
2018-02-22T06:47:23.303Z,1005.17
2018-02-22T06:48:03.864Z,1005.16
2018-02-22T06:48:44.427Z,1005.23
2018-02-22T06:49:24.979Z,1005.1
2018-02-22T06:50:05.526Z,1005.22
2018-02-22T06:50:46.085Z,1005.11
2018-02-22T06:51:26.645Z,1005.14
2018-02-22T06:52:07.206Z,1005.2
2018-02-22T06:52:47.759Z,1005.11
2018-02-22T06:53:28.322Z,1005.14
2018-02-22T06:54:08.881Z,1005.22
2018-02-22T06:54:49.828Z,1005.13
2018-02-22T06:55:30.573Z,1005.13
2018-02-22T06:56:11.107Z,1005.27
2018-02-22T06:56:51.653Z,1005.17
2018-02-22T06:57:32.192Z,1005.18
2018-02-22T06:58:13.472Z,1005.16
2018-02-22T06:58:54.029Z,1005.22
2018-02-22T06:59:34.623Z,1005.24
2018-02-22T07:00:15.190Z,1005.25
2018-02-22T07:00:55.752Z,1005.41
2018-02-22T07:01:36.345Z,1005.18
2018-02-22T07:02:16.840Z,1005.25
2018-02-22T07:02:57.442Z,1005.31
2018-02-22T07:03:38.064Z,1005.31
2018-02-22T07:04:19.038Z,1005.29
2018-02-22T07:04:59.601Z,1005.18
2018-02-22T07:05:40.824Z,1005.24
2018-02-22T07:06:24.406Z,1005.22
2018-02-22T07:07:05.263Z,1005.24
2018-02-22T07:07:45.811Z,1005.23
2018-02-22T07:08:27.227Z,1005.3
2018-02-22T07:09:07.608Z,1005.21
2018-02-22T07:09:49.314Z,1005.2
2018-02-22T07:11:49.829Z,1005.27
2018-02-22T07:12:30.362Z,1005.19
2018-02-22T07:13:10.908Z,1005.33
2018-02-22T07:13:51.501Z,1005.38
2018-02-22T07:14:32.046Z,1005.26
2018-02-22T07:15:12.611Z,1005.21
2018-02-22T07:15:53.180Z,1005.3
2018-02-22T07:16:33.755Z,1005.4
2018-02-22T07:17:14.321Z,1005.34
2018-02-22T07:17:54.896Z,1005.15
2018-02-22T07:18:35.428Z,1005.2
2018-02-22T07:19:16.011Z,1005.22
2018-02-22T07:19:56.617Z,1005.17
2018-02-22T07:20:37.156Z,1005.14
2018-02-22T07:21:17.713Z,1005.11
2018-02-22T07:21:58.269Z,1005.08
2018-02-22T07:22:39.929Z,1005.21
2018-02-22T07:23:20.448Z,1005.45
2018-02-22T07:24:00.978Z,1005.29
2018-02-22T07:24:44.909Z,1005.19
2018-02-22T07:25:25.419Z,1005.22
2018-02-22T07:26:06.011Z,1005.21
2018-02-22T07:26:46.527Z,1005.21
2018-02-22T07:27:27.073Z,1005.21
2018-02-22T07:28:07.642Z,1005.21
2018-02-22T07:28:48.316Z,1005.19
2018-02-22T07:29:28.773Z,1005.25
2018-02-22T07:30:09.278Z,1005.24
2018-02-22T07:30:49.810Z,1005.31
2018-02-22T07:31:30.298Z,1005.35
2018-02-22T07:32:10.785Z,1005.32
2018-02-22T07:32:51.323Z,1005.43
2018-02-22T07:33:31.858Z,1005.31
2018-02-22T07:34:12.447Z,1005.32
2018-02-22T07:34:52.926Z,1005.34
2018-02-22T07:35:33.497Z,1005.34
2018-02-22T07:36:14.015Z,1005.25
2018-02-22T07:36:54.539Z,1005.23
2018-02-22T07:37:35.061Z,1005.26
2018-02-22T07:38:15.592Z,1005.27
2018-02-22T07:38:56.145Z,1005.23
2018-02-22T07:39:36.785Z,1005.32
2018-02-22T07:40:17.299Z,1005.27
2018-02-22T07:40:57.877Z,1005.31
2018-02-22T07:41:38.375Z,1005.25
2018-02-22T07:42:18.887Z,1005.32
2018-02-22T07:42:59.445Z,1005.34
2018-02-22T07:43:39.979Z,1005.27
2018-02-22T07:44:20.490Z,1005.32
2018-02-22T07:45:01.045Z,1005.28
2018-02-22T07:45:41.530Z,1005.44
2018-02-22T07:46:22.097Z,1005.35
2018-02-22T07:47:02.654Z,1005.5
2018-02-22T07:47:43.200Z,1005.43
2018-02-22T07:48:23.745Z,1005.34
2018-02-22T07:49:04.273Z,1005.29
2018-02-22T07:49:44.839Z,1005.41
2018-02-22T07:50:25.360Z,1005.41
2018-02-22T07:51:06.031Z,1005.45
2018-02-22T07:51:46.572Z,1005.34
2018-02-22T07:52:27.153Z,1005.34
2018-02-22T07:53:07.698Z,1005.38
2018-02-22T07:53:48.249Z,1005.36
2018-02-22T07:54:28.833Z,1005.34
2018-02-22T07:55:09.384Z,1005.4
2018-02-22T07:55:49.940Z,1005.41
2018-02-22T07:56:30.488Z,1005.63
2018-02-22T07:57:11.064Z,1005.37
2018-02-22T07:57:51.651Z,1005.35
2018-02-22T07:58:32.257Z,1005.36
2018-02-22T07:59:12.830Z,1005.54
2018-02-22T07:59:53.394Z,1005.49
2018-02-22T08:00:33.961Z,1005.36
2018-02-22T08:01:14.511Z,1005.33
2018-02-22T08:01:55.079Z,1005.47
2018-02-22T08:02:35.643Z,1005.35
2018-02-22T08:03:16.180Z,1005.41
2018-02-22T08:03:56.743Z,1005.36
2018-02-22T08:04:37.298Z,1005.38
2018-02-22T08:05:17.836Z,1005.41
2018-02-22T08:05:58.416Z,1005.57
2018-02-22T08:06:39.099Z,1005.56
2018-02-22T08:07:19.646Z,1005.43
2018-02-22T08:08:00.198Z,1005.47
2018-02-22T08:08:40.749Z,1005.5
2018-02-22T08:09:21.294Z,1005.39
2018-02-22T08:10:01.846Z,1005.46
2018-02-22T08:10:42.876Z,1005.46
2018-02-22T08:11:23.445Z,1005.55
2018-02-22T08:12:03.997Z,1005.47
2018-02-22T08:12:44.537Z,1005.62
2018-02-22T08:13:25.122Z,1005.38
2018-02-22T08:14:05.670Z,1005.47
2018-02-22T08:14:46.246Z,1005.41